Time;durP1;ratioP1;P1;durP2;ratioP2;P2;SDS_P1;SDS_P2;PMS_P1;PMS_P2;Temp;Humidity;BMP_temperature;BMP_pressure;BME280_temperature;BME280_humidity;BME280_pressure;Samples;Min_cycle;Max_cycle;Signal;HPM_P1;HPM_P2
2023/06/11 00:00:11;;;;;;;10.30;5.82;;;25.30;46.90;;;;;;5027840;28;20382;-63
2023/06/11 00:02:41;;;;;;;9.32;6.03;;;25.30;47.10;;;;;;5033359;28;20032;-63
2023/06/11 00:05:08;;;;;;;8.65;6.07;;;25.30;47.20;;;;;;5034784;28;20037;-64
2023/06/11 00:07:36;;;;;;;9.35;6.32;;;25.30;47.30;;;;;;5021565;28;20022;-63
2023/06/11 00:10:03;;;;;;;8.20;5.72;;;25.20;47.30;;;;;;5028034;28;20450;-63
2023/06/11 00:12:29;;;;;;;10.05;6.78;;;25.20;47.50;;;;;;5018465;28;20341;-63
2023/06/11 00:14:55;;;;;;;10.32;6.47;;;25.10;47.60;;;;;;5035847;28;20025;-63
2023/06/11 00:17:21;;;;;;;8.75;5.63;;;25.10;47.70;;;;;;5033803;28;20343;-63
2023/06/11 00:19:48;;;;;;;9.23;6.38;;;25.10;47.70;;;;;;5033472;28;20037;-63
2023/06/11 00:22:14;;;;;;;9.93;6.28;;;25.10;47.80;;;;;;5029955;28;20045;-63
2023/06/11 00:24:41;;;;;;;8.77;6.65;;;25.10;47.90;;;;;;5033920;28;20022;-63
2023/06/11 00:27:07;;;;;;;9.32;6.30;;;25.10;47.90;;;;;;5032542;28;20033;-63
2023/06/11 00:29:33;;;;;;;10.38;6.47;;;25.00;47.90;;;;;;5030231;28;20048;-63
2023/06/11 00:31:59;;;;;;;9.15;6.13;;;25.00;48.00;;;;;;5032848;28;20025;-63
2023/06/11 00:34:25;;;;;;;17.30;6.93;;;25.00;48.10;;;;;;5033153;28;20021;-63
2023/06/11 00:36:52;;;;;;;9.05;6.57;;;25.00;48.10;;;;;;5034282;28;20108;-63
2023/06/11 00:39:18;;;;;;;9.15;6.72;;;25.00;48.30;;;;;;5034796;28;20112;-63
2023/06/11 00:41:48;;;;;;;11.90;6.70;;;25.00;48.40;;;;;;5025338;28;20026;-63
2023/06/11 00:44:18;;;;;;;10.68;7.28;;;24.90;48.50;;;;;;5031595;28;20044;-63
2023/06/11 00:46:45;;;;;;;10.65;7.18;;;24.90;48.50;;;;;;5034614;28;20319;-63
2023/06/11 00:49:11;;;;;;;9.77;6.72;;;24.90;48.60;;;;;;5027314;28;20490;-63
2023/06/11 00:51:42;;;;;;;10.60;6.72;;;24.90;48.70;;;;;;5033199;28;20029;-63
2023/06/11 00:54:12;;;;;;;9.45;6.43;;;24.90;48.90;;;;;;5026647;28;20042;-63
2023/06/11 00:56:43;;;;;;;9.18;7.32;;;24.90;48.90;;;;;;5034110;28;20541;-63
2023/06/11 00:59:11;;;;;;;9.98;7.18;;;24.80;49.00;;;;;;5023289;28;20060;-63
2023/06/11 01:01:45;;;;;;;9.30;6.72;;;24.80;49.10;;;;;;5028769;28;20087;-63
2023/06/11 01:04:17;;;;;;;9.85;7.10;;;24.70;49.20;;;;;;5027724;28;20462;-63
2023/06/11 01:06:49;;;;;;;9.20;7.00;;;24.70;49.30;;;;;;5027775;28;20036;-63
2023/06/11 01:09:22;;;;;;;9.27;6.55;;;24.70;49.40;;;;;;5033846;28;20119;-63
2023/06/11 01:11:49;;;;;;;9.38;6.97;;;24.70;49.50;;;;;;5023894;28;20117;-63
2023/06/11 01:14:17;;;;;;;11.43;6.88;;;24.70;49.50;;;;;;5029654;28;20380;-63
2023/06/11 01:16:54;;;;;;;9.68;6.82;;;24.70;49.60;;;;;;5033346;28;20091;-63
2023/06/11 01:19:38;;;;;;;10.35;6.97;;;24.60;49.60;;;;;;5034621;28;20507;-63
2023/06/11 01:22:30;;;;;;;9.88;7.20;;;24.60;49.70;;;;;;5033252;28;20536;-63
2023/06/11 01:25:16;;;;;;;9.80;7.15;;;24.60;49.80;;;;;;5021245;28;20128;-63
2023/06/11 01:28:03;;;;;;;8.75;6.47;;;24.50;49.90;;;;;;5020702;28;20113;-63
2023/06/11 01:30:32;;;;;;;8.45;6.57;;;24.50;50.00;;;;;;5015871;28;20036;-63
2023/06/11 01:32:59;;;;;;;9.18;6.60;;;24.50;50.10;;;;;;5018100;28;20025;-63
2023/06/11 01:35:33;;;;;;;9.27;6.82;;;24.50;50.20;;;;;;5028999;28;20029;-63
2023/06/11 01:38:00;;;;;;;8.70;7.00;;;24.50;50.30;;;;;;5027628;28;20034;-63
2023/06/11 01:40:38;;;;;;;9.15;6.57;;;24.40;50.30;;;;;;5023682;28;20561;-63
2023/06/11 01:43:06;;;;;;;10.30;7.45;;;24.40;50.40;;;;;;5031402;28;20029;-63
2023/06/11 01:45:33;;;;;;;11.18;7.05;;;24.40;50.50;;;;;;5037827;28;20400;-63
2023/06/11 01:48:00;;;;;;;10.88;7.35;;;24.40;50.60;;;;;;5037483;28;20104;-63
2023/06/11 01:50:26;;;;;;;10.75;7.32;;;24.30;50.60;;;;;;5034136;28;20509;-63
2023/06/11 01:52:52;;;;;;;9.90;7.22;;;24.30;51.40;;;;;;5013550;28;20112;-63
2023/06/11 01:55:18;;;;;;;13.30;7.20;;;24.20;50.80;;;;;;5020051;28;20025;-63
2023/06/11 01:57:46;;;;;;;11.10;7.20;;;24.20;51.00;;;;;;5025529;28;20098;-63
2023/06/11 02:00:13;;;;;;;9.27;6.78;;;24.20;51.20;;;;;;5011072;28;20057;-63
2023/06/11 02:02:48;;;;;;;9.13;7.20;;;24.10;51.30;;;;;;5024710;28;20375;-63
2023/06/11 02:05:16;;;;;;;11.68;7.13;;;24.10;51.50;;;;;;5035990;28;20020;-63
2023/06/11 02:07:42;;;;;;;10.05;7.05;;;24.10;51.60;;;;;;5042128;28;20328;-63
2023/06/11 02:10:08;;;;;;;9.77;7.28;;;24.10;51.60;;;;;;5003763;28;20367;-63
2023/06/11 02:12:33;;;;;;;9.45;7.10;;;24.00;51.70;;;;;;5016280;28;20049;-63
2023/06/11 02:14:59;;;;;;;11.25;7.28;;;24.00;51.80;;;;;;5021151;28;20431;-65
2023/06/11 02:17:25;;;;;;;9.88;7.50;;;24.00;51.90;;;;;;5050983;28;20347;-63
2023/06/11 02:19:51;;;;;;;10.05;7.85;;;24.00;52.00;;;;;;5034186;28;20032;-64
2023/06/11 02:22:17;;;;;;;10.52;7.75;;;23.90;52.00;;;;;;5035812;28;20037;-63
2023/06/11 02:24:43;;;;;;;11.05;7.22;;;23.90;52.10;;;;;;5052345;28;20048;-63
2023/06/11 02:27:09;;;;;;;10.05;7.70;;;23.90;52.00;;;;;;5049608;28;20082;-63
2023/06/11 02:29:35;;;;;;;10.00;7.55;;;23.90;52.00;;;;;;5050018;28;20503;-63
2023/06/11 02:32:03;;;;;;;10.48;6.93;;;23.90;52.10;;;;;;5020615;28;20312;-63
2023/06/11 02:34:29;;;;;;;11.27;7.65;;;23.90;52.20;;;;;;5026752;28;20032;-63
2023/06/11 02:36:55;;;;;;;10.68;7.25;;;23.80;52.20;;;;;;5036426;28;20375;-63
2023/06/11 02:39:21;;;;;;;10.43;7.25;;;23.80;52.20;;;;;;5027228;28;20045;-63
2023/06/11 02:41:47;;;;;;;10.93;6.95;;;23.80;52.20;;;;;;5026377;28;20033;-63
2023/06/11 02:44:13;;;;;;;11.02;7.43;;;23.80;52.20;;;;;;5023705;28;20037;-63
2023/06/11 02:46:39;;;;;;;9.82;6.63;;;23.70;52.30;;;;;;5032691;28;20029;-63
2023/06/11 02:49:05;;;;;;;11.07;7.00;;;23.70;52.20;;;;;;5032184;28;20089;-63
2023/06/11 02:51:31;;;;;;;11.65;7.57;;;23.70;52.20;;;;;;5006139;28;20030;-63
2023/06/11 02:53:57;;;;;;;8.93;6.90;;;23.70;52.30;;;;;;5014676;28;20036;-63
2023/06/11 02:56:22;;;;;;;9.43;7.13;;;23.70;52.30;;;;;;5035920;28;20024;-63
2023/06/11 02:58:49;;;;;;;10.23;7.10;;;23.70;52.40;;;;;;5017314;28;20458;-63
2023/06/11 03:01:15;;;;;;;11.40;7.28;;;23.60;52.40;;;;;;5043299;28;20110;-63
2023/06/11 03:03:41;;;;;;;9.57;7.10;;;23.60;52.50;;;;;;5029482;28;20025;-63
2023/06/11 03:06:07;;;;;;;9.63;6.75;;;23.60;52.50;;;;;;5024218;28;20449;-63
2023/06/11 03:08:34;;;;;;;10.95;7.05;;;23.60;52.50;;;;;;5041010;28;20099;-63
2023/06/11 03:10:59;;;;;;;10.55;7.07;;;23.60;52.50;;;;;;5043039;28;20449;-63
2023/06/11 03:13:25;;;;;;;10.85;7.32;;;23.50;52.50;;;;;;5027272;28;20036;-63
2023/06/11 03:15:55;;;;;;;11.15;7.32;;;23.50;52.50;;;;;;5038464;28;20033;-63
2023/06/11 03:18:21;;;;;;;11.18;7.28;;;23.50;52.70;;;;;;5020298;28;20108;-63
2023/06/11 03:20:47;;;;;;;10.48;6.80;;;23.50;52.70;;;;;;5038852;28;20033;-63
2023/06/11 03:23:14;;;;;;;9.73;6.97;;;23.50;52.80;;;;;;5026101;28;20112;-64
2023/06/11 03:25:41;;;;;;;8.55;6.60;;;23.40;52.80;;;;;;5037543;28;20075;-63
2023/06/11 03:28:07;;;;;;;9.40;7.47;;;23.40;52.80;;;;;;5041411;28;20485;-63
2023/06/11 03:30:33;;;;;;;9.00;6.90;;;23.40;53.40;;;;;;5039808;28;20025;-63
2023/06/11 03:33:00;;;;;;;9.18;7.03;;;23.40;52.80;;;;;;5039239;28;20444;-63
2023/06/11 03:35:26;;;;;;;10.32;7.50;;;23.40;52.80;;;;;;5030895;28;20465;-63
2023/06/11 03:37:52;;;;;;;8.55;6.43;;;23.30;52.80;;;;;;5044772;28;20025;-63
2023/06/11 03:40:22;;;;;;;9.48;6.90;;;23.30;52.90;;;;;;5022122;28;20088;-63
2023/06/11 03:42:49;;;;;;;8.93;6.50;;;23.30;53.00;;;;;;5053535;28;20056;-63
2023/06/11 03:45:15;;;;;;;11.13;7.43;;;23.30;53.00;;;;;;5035071;28;20407;-63
2023/06/11 03:47:42;;;;;;;9.20;7.15;;;23.30;53.00;;;;;;5044635;28;20474;-63
2023/06/11 03:50:08;;;;;;;9.43;6.60;;;23.30;53.60;;;;;;5043032;28;20026;-63
2023/06/11 03:52:34;;;;;;;9.00;7.07;;;23.20;53.00;;;;;;5053672;28;20029;-63
2023/06/11 03:54:59;;;;;;;9.35;6.85;;;23.30;53.10;;;;;;5036477;28;20179;-63
2023/06/11 03:57:26;;;;;;;9.20;7.40;;;23.30;53.10;;;;;;5004909;28;20032;-63
2023/06/11 03:59:52;;;;;;;9.80;6.68;;;23.20;53.10;;;;;;5035733;28;20030;-63
2023/06/11 04:02:18;;;;;;;11.18;7.55;;;23.20;53.20;;;;;;5045796;28;20111;-63
2023/06/11 04:04:45;;;;;;;9.35;6.97;;;23.20;53.20;;;;;;5031487;28;20022;-63
2023/06/11 04:07:11;;;;;;;9.85;6.97;;;23.20;53.30;;;;;;5040993;28;20022;-63
2023/06/11 04:09:38;;;;;;;9.48;6.88;;;23.20;53.40;;;;;;5016095;28;20038;-63
2023/06/11 04:12:05;;;;;;;9.57;6.88;;;23.20;53.50;;;;;;5028319;28;20029;-63
2023/06/11 04:14:32;;;;;;;9.45;6.72;;;23.20;53.50;;;;;;5032150;28;20478;-63
2023/06/11 04:16:58;;;;;;;13.10;6.57;;;23.20;53.50;;;;;;5041421;28;20021;-63
2023/06/11 04:19:24;;;;;;;10.57;6.80;;;23.10;53.40;;;;;;5034304;28;20103;-62
2023/06/11 04:21:50;;;;;;;8.40;6.55;;;23.10;53.50;;;;;;5037922;28;20621;-63
2023/06/11 04:24:15;;;;;;;9.65;6.88;;;23.10;53.50;;;;;;5041956;28;20030;-63
2023/06/11 04:26:43;;;;;;;10.40;6.97;;;23.10;53.50;;;;;;5024718;28;20032;-63
2023/06/11 04:29:09;;;;;;;9.65;7.10;;;23.10;53.50;;;;;;5041476;28;20031;-63
2023/06/11 04:31:35;;;;;;;9.35;7.07;;;23.20;53.60;;;;;;5017475;28;20037;-63
2023/06/11 04:34:02;;;;;;;10.05;6.88;;;23.20;53.60;;;;;;5047240;28;21054;-62
2023/06/11 04:36:30;;;;;;;8.95;6.93;;;23.20;53.60;;;;;;5033600;28;20028;-62
2023/06/11 04:38:56;;;;;;;9.45;7.20;;;23.20;53.60;;;;;;5030947;28;20528;-63
2023/06/11 04:41:26;;;;;;;9.32;6.38;;;23.20;53.60;;;;;;5022749;28;20034;-62
2023/06/11 04:43:52;;;;;;;9.00;7.07;;;23.20;53.60;;;;;;5042817;28;20025;-63
2023/06/11 04:46:18;;;;;;;9.82;6.75;;;23.20;53.50;;;;;;5034268;28;20021;-63
2023/06/11 04:48:48;;;;;;;8.65;6.65;;;23.30;53.50;;;;;;5009142;28;20030;-62
2023/06/11 04:51:16;;;;;;;9.35;6.63;;;23.30;53.40;;;;;;5021901;28;20493;-63
2023/06/11 04:53:45;;;;;;;10.13;6.85;;;23.30;53.40;;;;;;5027685;28;20052;-63
2023/06/11 04:56:13;;;;;;;9.05;6.35;;;23.30;53.50;;;;;;5012728;28;20026;-63
2023/06/11 04:58:40;;;;;;;9.23;6.57;;;23.40;53.50;;;;;;5034218;28;20041;-62
2023/06/11 05:01:07;;;;;;;9.68;6.97;;;23.40;53.30;;;;;;5025683;28;20408;-62
2023/06/11 05:03:36;;;;;;;9.60;6.45;;;23.40;53.30;;;;;;5027702;28;20049;-62
2023/06/11 05:06:04;;;;;;;9.63;6.35;;;23.40;53.30;;;;;;5028203;28;20513;-63
2023/06/11 05:08:32;;;;;;;10.23;7.22;;;23.50;53.40;;;;;;5010088;28;20052;-62
2023/06/11 05:11:00;;;;;;;9.88;6.55;;;23.50;53.30;;;;;;5026046;28;20033;-62
2023/06/11 05:13:28;;;;;;;9.45;7.18;;;23.60;53.40;;;;;;5012620;28;20022;-63
2023/06/11 05:16:01;;;;;;;8.43;6.32;;;23.70;53.10;;;;;;5028326;28;20139;-63
2023/06/11 05:18:28;;;;;;;10.18;6.88;;;23.80;52.90;;;;;;5027612;28;20068;-63
2023/06/11 05:20:55;;;;;;;9.20;6.95;;;23.90;52.90;;;;;;5026794;28;20030;-63
2023/06/11 05:23:28;;;;;;;10.65;6.78;;;24.00;52.60;;;;;;5026880;28;20350;-62
2023/06/11 05:26:01;;;;;;;9.93;6.60;;;24.10;52.50;;;;;;5026994;28;20107;-63
2023/06/11 05:28:29;;;;;;;8.75;6.55;;;24.30;52.30;;;;;;5010465;28;20022;-63
2023/06/11 05:30:55;;;;;;;9.55;6.75;;;24.30;52.00;;;;;;5029272;28;20021;-63
2023/06/11 05:33:22;;;;;;;8.90;6.70;;;24.50;52.00;;;;;;5011662;28;20370;-63
2023/06/11 05:35:49;;;;;;;9.02;6.40;;;24.50;52.00;;;;;;5025858;28;20083;-63
2023/06/11 05:38:17;;;;;;;9.82;7.03;;;24.70;52.00;;;;;;5030334;28;20073;-63
2023/06/11 05:40:43;;;;;;;9.15;6.57;;;24.70;51.80;;;;;;5042919;28;20017;-63
2023/06/11 05:43:09;;;;;;;10.40;7.25;;;24.80;51.70;;;;;;5026662;28;20014;-62
2023/06/11 05:45:36;;;;;;;12.38;7.35;;;24.90;51.50;;;;;;5008740;28;20026;-62
2023/06/11 05:48:05;;;;;;;14.32;6.72;;;24.90;51.50;;;;;;5019223;28;20053;-62
2023/06/11 05:50:34;;;;;;;9.95;7.30;;;25.00;51.40;;;;;;5006602;28;20025;-62
2023/06/11 05:52:59;;;;;;;9.18;6.18;;;25.10;51.30;;;;;;5026454;28;20037;-62
2023/06/11 05:55:25;;;;;;;8.98;6.40;;;25.10;51.30;;;;;;5025916;28;20025;-62
2023/06/11 05:57:51;;;;;;;9.27;6.70;;;25.20;51.30;;;;;;5031265;28;20112;-62
2023/06/11 06:00:18;;;;;;;10.38;7.15;;;25.20;51.20;;;;;;5023051;28;20049;-62
2023/06/11 06:02:49;;;;;;;9.27;6.78;;;25.30;51.30;;;;;;5025290;28;20221;-62
2023/06/11 06:05:22;;;;;;;9.43;7.00;;;25.30;51.20;;;;;;5017784;28;20017;-62
2023/06/11 06:07:48;;;;;;;9.80;6.38;;;25.40;51.20;;;;;;5018138;28;20099;-62
2023/06/11 06:10:14;;;;;;;9.73;6.47;;;25.50;51.00;;;;;;5024423;28;20053;-62
2023/06/11 06:12:40;;;;;;;9.32;7.05;;;25.60;50.90;;;;;;5026494;28;20414;-62
2023/06/11 06:15:08;;;;;;;10.43;6.53;;;25.60;50.70;;;;;;5027986;28;20179;-62
2023/06/11 06:17:34;;;;;;;10.90;6.75;;;25.70;50.80;;;;;;5026035;28;20033;-62
2023/06/11 06:20:00;;;;;;;9.52;6.93;;;25.80;50.80;;;;;;5023182;28;20328;-62
2023/06/11 06:22:26;;;;;;;9.25;7.25;;;25.90;50.60;;;;;;5025824;28;20041;-62
2023/06/11 06:24:53;;;;;;;8.38;6.25;;;26.00;50.50;;;;;;5021536;28;20446;-62
2023/06/11 06:27:20;;;;;;;9.43;6.85;;;26.10;50.50;;;;;;5021762;28;20029;-62
2023/06/11 06:29:48;;;;;;;10.52;6.85;;;26.20;50.40;;;;;;5025471;28;20354;-62
2023/06/11 06:32:15;;;;;;;8.43;6.60;;;26.30;50.30;;;;;;5033147;28;20100;-62
2023/06/11 06:34:41;;;;;;;9.52;6.88;;;26.30;50.30;;;;;;5003395;28;20120;-62
2023/06/11 06:37:09;;;;;;;10.23;6.78;;;26.50;50.30;;;;;;5024055;28;20037;-62
2023/06/11 06:39:35;;;;;;;9.40;7.18;;;26.60;50.20;;;;;;5024595;28;20029;-62
2023/06/11 06:42:01;;;;;;;10.68;6.78;;;26.60;50.00;;;;;;5028064;28;20102;-62
2023/06/11 06:44:37;;;;;;;9.00;6.65;;;26.70;49.90;;;;;;5014106;28;20101;-62
2023/06/11 06:47:03;;;;;;;9.32;7.25;;;26.90;50.00;;;;;;5011333;28;20025;-62
2023/06/11 06:49:29;;;;;;;9.45;6.93;;;27.00;49.70;;;;;;5000515;28;20456;-62
2023/06/11 06:51:55;;;;;;;9.90;6.40;;;27.10;49.60;;;;;;5031538;28;20115;-62
2023/06/11 06:54:21;;;;;;;9.23;7.00;;;27.20;49.60;;;;;;5025314;28;20029;-62
2023/06/11 06:56:49;;;;;;;8.65;6.95;;;27.30;49.60;;;;;;5024438;28;20454;-62
2023/06/11 06:59:16;;;;;;;10.82;6.97;;;27.50;49.50;;;;;;5025831;28;20040;-62
2023/06/11 07:01:43;;;;;;;8.65;6.47;;;27.60;49.30;;;;;;5026892;28;20133;-62
2023/06/11 07:04:09;;;;;;;8.35;6.22;;;27.70;49.00;;;;;;5027996;28;20120;-62
2023/06/11 07:06:36;;;;;;;9.57;6.43;;;27.80;48.60;;;;;;5011301;28;20028;-62
2023/06/11 07:09:03;;;;;;;8.90;6.30;;;28.00;48.40;;;;;;5020900;28;20038;-62
2023/06/11 07:11:29;;;;;;;8.75;6.18;;;28.10;48.30;;;;;;5024924;28;20022;-62
2023/06/11 07:13:56;;;;;;;18.08;7.07;;;28.20;48.00;;;;;;5032394;28;20121;-63
2023/06/11 07:16:23;;;;;;;8.10;6.22;;;28.40;47.90;;;;;;5022163;28;20072;-62
2023/06/11 07:18:56;;;;;;;8.95;5.78;;;28.50;47.60;;;;;;5032755;28;20040;-62
2023/06/11 07:21:23;;;;;;;8.05;5.15;;;28.60;47.30;;;;;;5028965;28;20033;-62
2023/06/11 07:23:49;;;;;;;8.20;5.80;;;28.80;47.00;;;;;;5003996;28;20038;-62
2023/06/11 07:26:15;;;;;;;10.75;6.07;;;28.90;46.80;;;;;;5001982;28;20109;-62
2023/06/11 07:28:43;;;;;;;9.10;5.82;;;29.00;46.50;;;;;;5040498;28;20025;-62
2023/06/11 07:31:10;;;;;;;8.40;5.45;;;29.20;46.20;;;;;;5032792;28;20025;-62
2023/06/11 07:33:36;;;;;;;8.70;5.80;;;29.30;46.10;;;;;;5027261;28;20393;-62
2023/06/11 07:36:02;;;;;;;10.55;5.85;;;29.40;45.90;;;;;;5029952;28;20083;-62
2023/06/11 07:38:29;;;;;;;8.13;5.63;;;29.50;45.70;;;;;;5019494;28;20469;-62
2023/06/11 07:40:55;;;;;;;10.15;5.45;;;29.60;45.50;;;;;;5017352;28;20033;-61
2023/06/11 07:43:23;;;;;;;7.55;5.20;;;29.70;45.40;;;;;;5028283;28;20032;-62
2023/06/11 07:45:48;;;;;;;9.13;5.70;;;29.80;45.30;;;;;;5032961;28;20116;-62
2023/06/11 07:48:15;;;;;;;9.02;5.88;;;29.90;45.10;;;;;;5032973;28;20063;-62
2023/06/11 07:50:41;;;;;;;8.57;5.45;;;30.10;44.90;;;;;;5033493;28;20021;-61
2023/06/11 07:53:08;;;;;;;8.07;5.43;;;30.10;44.70;;;;;;5019448;28;20037;-61
2023/06/11 07:55:34;;;;;;;7.75;5.22;;;30.20;44.60;;;;;;5015385;28;20083;-61
2023/06/11 07:58:00;;;;;;;9.52;5.80;;;30.20;44.20;;;;;;5031588;28;20112;-62
2023/06/11 08:00:26;;;;;;;9.23;5.43;;;30.20;44.30;;;;;;5033582;28;20465;-62
2023/06/11 08:02:52;;;;;;;9.05;6.13;;;30.30;44.30;;;;;;5034158;28;20030;-62
2023/06/11 08:05:17;;;;;;;7.93;5.22;;;30.30;44.00;;;;;;5027057;28;20493;-62
2023/06/11 08:07:47;;;;;;;10.13;5.65;;;30.40;43.90;;;;;;5033084;28;20427;-62
2023/06/11 08:10:14;;;;;;;8.68;5.65;;;30.50;44.20;;;;;;5038329;28;20078;-61
2023/06/11 08:12:41;;;;;;;9.30;5.30;;;30.60;44.20;;;;;;5035982;28;20037;-62
2023/06/11 08:15:08;;;;;;;7.95;5.45;;;30.60;43.90;;;;;;5027154;28;20121;-62
2023/06/11 08:17:34;;;;;;;9.55;5.38;;;30.60;44.00;;;;;;5028482;28;20033;-61
2023/06/11 08:20:00;;;;;;;7.80;5.20;;;30.70;44.10;;;;;;5029886;28;20048;-62
2023/06/11 08:22:26;;;;;;;7.88;5.20;;;30.80;44.10;;;;;;5028746;28;20029;-62
2023/06/11 08:24:52;;;;;;;7.68;5.30;;;31.00;43.90;;;;;;5029450;28;20029;-62
2023/06/11 08:27:18;;;;;;;7.43;5.22;;;31.00;43.60;;;;;;5031591;28;20025;-62
2023/06/11 08:29:43;;;;;;;7.30;5.05;;;31.10;43.40;;;;;;5018605;28;20106;-62
2023/06/11 08:32:09;;;;;;;8.32;5.22;;;31.20;43.70;;;;;;5034241;28;20366;-62
2023/06/11 08:34:35;;;;;;;7.97;5.35;;;31.20;43.30;;;;;;5036004;28;20022;-62
2023/06/11 08:37:01;;;;;;;7.18;5.20;;;31.30;43.30;;;;;;5035441;28;20056;-62
2023/06/11 08:39:26;;;;;;;9.30;5.07;;;31.40;43.10;;;;;;5035177;28;20056;-62
2023/06/11 08:41:53;;;;;;;8.57;5.40;;;31.50;43.00;;;;;;5036901;28;20030;-62
2023/06/11 08:44:20;;;;;;;11.43;5.82;;;31.60;42.80;;;;;;5035283;28;20403;-62
2023/06/11 08:46:48;;;;;;;7.80;4.90;;;31.70;42.70;;;;;;5036561;28;20029;-62
2023/06/11 08:49:21;;;;;;;7.82;5.75;;;31.80;42.60;;;;;;5031661;28;20350;-62
2023/06/11 08:51:47;;;;;;;9.38;5.40;;;31.90;42.30;;;;;;5030173;28;20067;-63
2023/06/11 08:54:14;;;;;;;7.75;5.60;;;32.00;42.10;;;;;;5029292;28;20033;-62
2023/06/11 08:56:40;;;;;;;7.90;5.15;;;32.00;41.80;;;;;;5031412;28;20120;-62
2023/06/11 08:59:06;;;;;;;8.23;5.05;;;32.10;41.80;;;;;;5030382;28;20112;-63
2023/06/11 09:01:32;;;;;;;9.15;5.20;;;32.20;41.70;;;;;;5028639;28;20043;-62
2023/06/11 09:03:59;;;;;;;8.20;5.13;;;32.20;41.70;;;;;;5030539;28;20124;-62
2023/06/11 09:06:24;;;;;;;8.15;5.13;;;32.30;41.70;;;;;;5030517;28;20037;-62
2023/06/11 09:08:57;;;;;;;8.32;5.28;;;32.40;41.70;;;;;;5026800;28;20447;-62
2023/06/11 09:11:23;;;;;;;7.25;4.78;;;32.50;41.50;;;;;;5027159;28;20053;-62
2023/06/11 09:13:48;;;;;;;8.70;5.20;;;32.60;41.50;;;;;;5029079;28;20049;-62
2023/06/11 09:16:14;;;;;;;9.30;5.13;;;32.70;41.40;;;;;;5026676;28;20027;-62
2023/06/11 09:18:43;;;;;;;8.68;5.40;;;32.80;41.20;;;;;;5028121;28;20025;-62
2023/06/11 09:21:11;;;;;;;7.32;5.10;;;32.80;41.00;;;;;;5026784;28;21852;-62
2023/06/11 09:23:38;;;;;;;9.52;4.80;;;32.90;41.20;;;;;;5028544;28;20036;-63
2023/06/11 09:26:04;;;;;;;7.28;5.05;;;33.00;41.00;;;;;;5029815;28;20116;-62
2023/06/11 09:28:37;;;;;;;7.90;5.20;;;33.00;40.80;;;;;;5028898;28;20323;-63
2023/06/11 09:31:04;;;;;;;8.18;4.97;;;33.10;40.60;;;;;;5029063;28;20343;-62
2023/06/11 09:33:31;;;;;;;9.40;5.05;;;33.10;40.50;;;;;;5027895;28;20405;-62
2023/06/11 09:35:58;;;;;;;9.05;4.75;;;33.30;40.40;;;;;;5028845;28;20041;-62
2023/06/11 09:38:24;;;;;;;9.27;5.05;;;33.30;40.40;;;;;;5026049;28;20053;-62
2023/06/11 09:40:54;;;;;;;7.72;5.20;;;33.50;40.30;;;;;;5027306;28;20027;-62
2023/06/11 09:43:23;;;;;;;7.78;4.90;;;33.50;40.10;;;;;;5041763;28;20024;-62
2023/06/11 09:45:54;;;;;;;7.20;4.82;;;33.60;40.00;;;;;;5025769;28;20113;-62
2023/06/11 09:48:20;;;;;;;;;;;33.70;39.90;;;;;;5027449;28;20027;-62
2023/06/11 09:50:53;;;;;;;7.15;4.63;;;33.70;40.00;;;;;;5026086;28;19913;-63
2023/06/11 09:53:20;;;;;;;8.68;4.75;;;33.80;39.80;;;;;;5027507;28;20500;-63
2023/06/11 09:55:50;;;;;;;7.57;4.55;;;33.80;39.50;;;;;;5031781;28;20103;-62
2023/06/11 09:58:22;;;;;;;7.68;4.85;;;33.90;39.40;;;;;;5027448;28;20147;-62
2023/06/11 10:00:58;;;;;;;6.90;4.40;;;34.00;39.20;;;;;;5024875;28;20026;-62
2023/06/11 10:03:24;;;;;;;8.07;4.72;;;34.00;38.90;;;;;;5026783;28;20037;-62
2023/06/11 10:05:51;;;;;;;8.25;4.78;;;34.10;38.70;;;;;;5027465;28;20078;-62
2023/06/11 10:08:22;;;;;;;7.35;4.88;;;34.10;38.70;;;;;;5023128;28;20489;-62
2023/06/11 10:10:53;;;;;;;7.53;4.70;;;34.10;38.60;;;;;;5025667;28;20044;-63
2023/06/11 10:13:35;;;;;;;6.93;4.38;;;34.00;38.50;;;;;;5025328;28;20074;-62
2023/06/11 10:16:07;;;;;;;7.90;4.60;;;34.00;38.70;;;;;;5027280;28;20358;-62
2023/06/11 10:18:33;;;;;;;8.25;4.75;;;34.20;38.40;;;;;;5026567;28;21837;-63
2023/06/11 10:21:03;;;;;;;7.03;4.55;;;34.20;38.30;;;;;;5020005;28;20068;-63
2023/06/11 10:23:42;;;;;;;;;;;34.20;38.10;;;;;;5033980;28;20029;-63
2023/06/11 10:26:12;;;;;;;9.20;4.30;;;34.30;38.30;;;;;;5026846;28;20007;-62
2023/06/11 10:28:43;;;;;;;7.20;4.28;;;34.40;37.90;;;;;;5026842;28;20029;-63
2023/06/11 10:31:09;;;;;;;7.68;4.05;;;34.40;37.40;;;;;;5026844;28;20033;-62
2023/06/11 10:33:36;;;;;;;8.02;4.53;;;34.40;37.30;;;;;;5024820;28;20032;-62
2023/06/11 10:36:01;;;;;;;7.88;4.60;;;34.40;37.10;;;;;;5027879;28;20430;-62
2023/06/11 10:38:29;;;;;;;6.75;4.15;;;34.50;37.10;;;;;;5010795;28;20124;-63
2023/06/11 10:41:03;;;;;;;6.90;3.83;;;34.50;37.50;;;;;;5028707;28;20341;-62
2023/06/11 10:43:31;;;;;;;6.43;3.60;;;34.50;36.40;;;;;;5023009;28;20025;-63
2023/06/11 10:46:11;;;;;;;6.88;3.70;;;34.50;36.50;;;;;;5027506;28;20034;-62
2023/06/11 10:48:48;;;;;;;;;;;34.60;36.10;;;;;;5024484;28;20018;-62
2023/06/11 10:51:14;;;;;;;6.78;3.25;;;34.60;36.40;;;;;;5023319;28;19913;-63
2023/06/11 10:53:40;;;;;;;6.43;3.53;;;34.60;36.10;;;;;;5026664;28;20029;-63
2023/06/11 10:56:12;;;;;;;7.07;3.53;;;34.60;35.70;;;;;;5026978;28;20103;-63
2023/06/11 10:58:38;;;;;;;6.82;3.53;;;34.50;35.40;;;;;;5026162;28;20358;-63
2023/06/11 11:01:08;;;;;;;6.70;3.47;;;34.50;35.60;;;;;;5026995;28;20042;-63
2023/06/11 11:03:34;;;;;;;6.55;3.88;;;34.60;35.60;;;;;;5026944;28;20111;-63
2023/06/11 11:06:00;;;;;;;7.40;4.05;;;34.60;35.30;;;;;;5024740;28;20410;-63
2023/06/11 11:08:26;;;;;;;7.22;3.78;;;34.60;35.10;;;;;;5027392;28;20088;-63
2023/06/11 11:10:54;;;;;;;7.10;3.80;;;34.60;35.10;;;;;;5024094;28;20124;-62
2023/06/11 11:13:20;;;;;;;6.70;3.90;;;34.60;35.10;;;;;;5027357;28;20033;-63
2023/06/11 11:15:46;;;;;;;7.05;3.85;;;34.60;35.10;;;;;;5033064;28;20120;-62
2023/06/11 11:18:12;;;;;;;6.80;4.10;;;34.60;35.10;;;;;;5027564;28;20446;-62
2023/06/11 11:20:38;;;;;;;6.82;3.97;;;34.70;35.00;;;;;;5026507;28;20029;-63
2023/06/11 11:23:05;;;;;;;7.43;3.72;;;34.70;34.70;;;;;;5025756;28;20037;-62
2023/06/11 11:25:32;;;;;;;7.50;4.35;;;34.70;34.50;;;;;;5024613;28;20143;-63
2023/06/11 11:27:58;;;;;;;6.60;3.40;;;34.70;34.40;;;;;;5025329;28;20045;-62
2023/06/11 11:30:24;;;;;;;7.03;4.28;;;34.70;34.40;;;;;;5025842;28;20595;-62
2023/06/11 11:32:51;;;;;;;6.43;3.75;;;34.70;34.30;;;;;;5025053;28;20041;-62
2023/06/11 11:35:18;;;;;;;6.60;3.83;;;34.60;34.20;;;;;;5023833;28;20063;-63
2023/06/11 11:37:51;;;;;;;8.07;3.92;;;34.60;34.10;;;;;;5024368;28;20037;-63
2023/06/11 11:40:20;;;;;;;6.28;3.70;;;34.60;34.10;;;;;;5024310;28;20045;-64
2023/06/11 11:42:51;;;;;;;7.73;4.30;;;34.60;33.90;;;;;;5024487;28;20136;-64
2023/06/11 11:45:19;;;;;;;6.45;3.42;;;34.50;33.70;;;;;;5023596;28;20284;-64
2023/06/11 11:47:50;;;;;;;6.65;3.60;;;34.50;33.90;;;;;;5022349;28;20446;-64
2023/06/11 11:50:27;;;;;;;7.80;4.03;;;34.50;33.50;;;;;;5026971;28;20124;-64
2023/06/11 11:53:07;;;;;;;6.72;3.85;;;34.40;33.60;;;;;;5024486;28;20037;-64
2023/06/11 11:55:41;;;;;;;7.38;3.85;;;34.40;33.40;;;;;;5028943;28;20366;-64
2023/06/11 11:58:15;;;;;;;6.35;4.05;;;34.40;33.50;;;;;;5022491;28;20069;-64
2023/06/11 12:00:53;;;;;;;6.30;3.50;;;34.30;33.40;;;;;;5025855;28;20084;-64
2023/06/11 12:03:23;;;;;;;7.55;3.92;;;34.30;33.40;;;;;;5029380;28;20026;-64
2023/06/11 12:05:58;;;;;;;6.50;3.53;;;34.20;33.40;;;;;;5028998;28;20700;-64
2023/06/11 12:08:24;;;;;;;5.18;2.97;;;34.10;33.40;;;;;;5026655;28;20315;-64
2023/06/11 12:10:51;;;;;;;5.90;3.83;;;34.00;33.30;;;;;;5032879;28;20073;-64
2023/06/11 12:13:18;;;;;;;6.07;3.38;;;33.90;33.10;;;;;;5027020;28;20034;-64
2023/06/11 12:15:44;;;;;;;8.32;3.85;;;33.90;32.90;;;;;;5027855;28;20041;-64
2023/06/11 12:18:09;;;;;;;6.18;3.58;;;33.80;32.60;;;;;;5026328;28;20021;-64
2023/06/11 12:20:35;;;;;;;7.13;3.63;;;33.80;32.70;;;;;;5034693;28;20033;-64
2023/06/11 12:23:01;;;;;;;7.28;3.55;;;33.70;32.70;;;;;;5028811;28;20041;-63
2023/06/11 12:25:30;;;;;;;7.38;4.05;;;33.60;32.70;;;;;;5024067;28;20052;-64
2023/06/11 12:27:55;;;;;;;7.70;4.47;;;33.50;32.80;;;;;;5018728;28;20026;-64
2023/06/11 12:30:21;;;;;;;7.15;3.88;;;33.40;32.80;;;;;;5029249;28;20024;-64
2023/06/11 12:32:47;;;;;;;6.75;4.13;;;33.20;32.90;;;;;;5026200;28;20041;-64
2023/06/11 12:35:14;;;;;;;6.45;3.50;;;33.20;33.30;;;;;;5026715;28;20025;-64
2023/06/11 12:37:40;;;;;;;7.45;4.22;;;33.10;33.50;;;;;;5024153;28;20037;-64
2023/06/11 12:40:07;;;;;;;6.63;3.75;;;33.00;33.30;;;;;;5024818;28;20361;-63
2023/06/11 12:42:33;;;;;;;6.25;3.97;;;32.90;33.20;;;;;;5027959;28;21274;-64
2023/06/11 12:45:00;;;;;;;6.38;3.72;;;32.80;33.10;;;;;;5026918;28;20568;-64
2023/06/11 12:47:26;;;;;;;6.68;3.70;;;32.80;33.30;;;;;;5035671;28;20026;-64